Indianapolis, Indiana
Current Conditions -  °F | °C
As of 2:54 AM on Sunday 26 Oct 2014 (Local Time) from KIND Reporting Station
Clear Clear  
Wind Chill: 51°   Ceiling: Unl
Heat Index: 51°   Visibility: 10mi
Dew Point: 34°   Wind: 9mph
Humidity: 52%   Direction: 310°NW
Pressure: 29.98"   Gusts: NA
Location:  39.77°N, 86.15°W
Report Text: KIND 260654Z AUTO 31008KT 10SM CLR 11/01 A2998 RMK AO2 SLP148 T01060011 TSNO
Loading
Personal Weather Stations






























Interactive Weather Map
Tropical Storm Tracking
New forecast layout! Learn more

10-Day Weather Forecast

Advertisements
Track Severe Weather on mobile